sensor_id;sensor_type;location;lat;lon;timestamp;P1;durP1;ratioP1;P2;durP2;ratioP2
12912;SDS011;6524;51.368;11.984;2022-10-10T04:05:27;8.80;;;4.80;;
12912;SDS011;6524;51.368;11.984;2022-10-10T04:10:27;6.70;;;4.57;;
12912;SDS011;6524;51.368;11.984;2022-10-10T04:15:28;6.97;;;4.33;;
12912;SDS011;6524;51.368;11.984;2022-10-10T04:20:29;5.37;;;4.53;;
12912;SDS011;6524;51.368;11.984;2022-10-10T04:25:29;6.27;;;4.70;;
12912;SDS011;6524;51.368;11.984;2022-10-10T04:30:31;9.53;;;4.80;;
12912;SDS011;6524;51.368;11.984;2022-10-10T04:35:32;5.93;;;4.30;;
12912;SDS011;6524;51.368;11.984;2022-10-10T04:40:34;7.93;;;4.93;;
12912;SDS011;6524;51.368;11.984;2022-10-10T04:45:35;8.07;;;5.03;;
12912;SDS011;6524;51.368;11.984;2022-10-10T04:50:36;7.83;;;4.60;;
12912;SDS011;6524;51.368;11.984;2022-10-10T04:55:36;5.80;;;4.70;;
12912;SDS011;6524;51.368;11.984;2022-10-10T05:00:37;6.30;;;4.60;;
12912;SDS011;6524;51.368;11.984;2022-10-10T05:05:38;6.87;;;4.53;;
12912;SDS011;6524;51.368;11.984;2022-10-10T05:10:38;7.17;;;4.93;;
12912;SDS011;6524;51.368;11.984;2022-10-10T05:15:39;6.77;;;5.10;;
12912;SDS011;6524;51.368;11.984;2022-10-10T05:20:40;7.67;;;5.10;;
12912;SDS011;6524;51.368;11.984;2022-10-10T05:25:51;6.63;;;4.93;;
12912;SDS011;6524;51.368;11.984;2022-10-10T05:30:52;6.13;;;5.23;;
12912;SDS011;6524;51.368;11.984;2022-10-10T05:35:52;6.40;;;4.80;;
12912;SDS011;6524;51.368;11.984;2022-10-10T05:40:59;7.00;;;4.73;;
12912;SDS011;6524;51.368;11.984;2022-10-10T05:46:00;9.03;;;5.37;;
12912;SDS011;6524;51.368;11.984;2022-10-10T05:51:00;10.63;;;5.70;;
12912;SDS011;6524;51.368;11.984;2022-10-10T05:56:01;8.97;;;5.93;;
12912;SDS011;6524;51.368;11.984;2022-10-10T06:01:02;9.63;;;5.90;;
12912;SDS011;6524;51.368;11.984;2022-10-10T06:06:04;10.50;;;6.03;;
12912;SDS011;6524;51.368;11.984;2022-10-10T06:11:06;7.17;;;5.67;;
12912;SDS011;6524;51.368;11.984;2022-10-10T06:16:09;8.80;;;5.43;;
12912;SDS011;6524;51.368;11.984;2022-10-10T06:21:13;12.43;;;6.37;;
12912;SDS011;6524;51.368;11.984;2022-10-10T06:26:14;7.13;;;6.43;;
12912;SDS011;6524;51.368;11.984;2022-10-10T06:31:15;11.23;;;6.77;;
12912;SDS011;6524;51.368;11.984;2022-10-10T06:36:15;16.13;;;7.50;;
12912;SDS011;6524;51.368;11.984;2022-10-10T06:41:17;9.77;;;6.73;;
12912;SDS011;6524;51.368;11.984;2022-10-10T06:46:18;14.60;;;7.70;;
12912;SDS011;6524;51.368;11.984;2022-10-10T06:51:18;11.43;;;6.67;;
12912;SDS011;6524;51.368;11.984;2022-10-10T06:56:18;12.30;;;6.43;;
12912;SDS011;6524;51.368;11.984;2022-10-10T07:01:22;9.30;;;6.32;;
12912;SDS011;6524;51.368;11.984;2022-10-10T07:06:23;11.63;;;7.70;;
12912;SDS011;6524;51.368;11.984;2022-10-10T07:11:24;9.07;;;5.78;;
12912;SDS011;6524;51.368;11.984;2022-10-10T07:16:24;7.68;;;5.90;;
12912;SDS011;6524;51.368;11.984;2022-10-10T07:21:25;8.15;;;5.70;;
12912;SDS011;6524;51.368;11.984;2022-10-10T07:26:26;9.13;;;5.25;;
12912;SDS011;6524;51.368;11.984;2022-10-10T07:31:29;6.22;;;4.38;;
12912;SDS011;6524;51.368;11.984;2022-10-10T07:36:31;6.22;;;4.43;;
12912;SDS011;6524;51.368;11.984;2022-10-10T07:41:31;7.75;;;4.55;;
12912;SDS011;6524;51.368;11.984;2022-10-10T07:46:32;5.85;;;5.07;;
12912;SDS011;6524;51.368;11.984;2022-10-10T07:51:32;7.32;;;4.93;;
12912;SDS011;6524;51.368;11.984;2022-10-10T07:56:33;5.95;;;4.00;;
12912;SDS011;6524;51.368;11.984;2022-10-10T08:01:33;7.03;;;4.03;;
12912;SDS011;6524;51.368;11.984;2022-10-10T08:06:34;5.22;;;3.38;;
12912;SDS011;6524;51.368;11.984;2022-10-10T08:11:34;4.28;;;3.50;;
12912;SDS011;6524;51.368;11.984;2022-10-10T08:16:34;3.30;;;2.97;;
12912;SDS011;6524;51.368;11.984;2022-10-10T08:21:35;4.07;;;3.35;;
12912;SDS011;6524;51.368;11.984;2022-10-10T08:26:35;8.10;;;3.87;;
12912;SDS011;6524;51.368;11.984;2022-10-10T08:31:36;5.90;;;3.33;;
12912;SDS011;6524;51.368;11.984;2022-10-10T08:36:36;4.25;;;2.95;;
12912;SDS011;6524;51.368;11.984;2022-10-10T08:41:41;3.45;;;3.05;;
12912;SDS011;6524;51.368;11.984;2022-10-10T08:47:01;4.47;;;3.38;;
12912;SDS011;6524;51.368;11.984;2022-10-10T08:57:54;5.50;;;3.25;;
12912;SDS011;6524;51.368;11.984;2022-10-10T09:02:57;4.78;;;3.30;;
12912;SDS011;6524;51.368;11.984;2022-10-10T09:08:21;4.00;;;3.35;;
12912;SDS011;6524;51.368;11.984;2022-10-10T09:24:02;5.15;;;3.90;;
12912;SDS011;6524;51.368;11.984;2022-10-10T09:39:56;7.80;;;4.10;;
12912;SDS011;6524;51.368;11.984;2022-10-10T09:45:02;4.22;;;3.40;;
12912;SDS011;6524;51.368;11.984;2022-10-10T09:50:12;4.82;;;3.63;;
12912;SDS011;6524;51.368;11.984;2022-10-10T09:55:28;4.93;;;3.70;;
12912;SDS011;6524;51.368;11.984;2022-10-10T10:00:39;5.35;;;3.80;;
12912;SDS011;6524;51.368;11.984;2022-10-10T10:05:40;5.88;;;3.92;;
12912;SDS011;6524;51.368;11.984;2022-10-10T10:10:44;3.72;;;3.42;;
12912;SDS011;6524;51.368;11.984;2022-10-10T10:15:49;4.13;;;3.42;;
12912;SDS011;6524;51.368;11.984;2022-10-10T10:21:13;4.35;;;3.53;;
12912;SDS011;6524;51.368;11.984;2022-10-10T10:31:29;4.85;;;3.30;;
12912;SDS011;6524;51.368;11.984;2022-10-10T10:36:53;3.63;;;3.33;;
12912;SDS011;6524;51.368;11.984;2022-10-10T10:52:55;4.13;;;2.97;;
12912;SDS011;6524;51.368;11.984;2022-10-10T11:03:35;4.07;;;3.67;;
12912;SDS011;6524;51.368;11.984;2022-10-10T11:24:28;5.30;;;3.70;;
12912;SDS011;6524;51.368;11.984;2022-10-10T11:29:46;4.50;;;3.40;;
12912;SDS011;6524;51.368;11.984;2022-10-10T11:39:58;5.87;;;3.70;;
12912;SDS011;6524;51.368;11.984;2022-10-10T11:45:04;4.38;;;3.75;;
12912;SDS011;6524;51.368;11.984;2022-10-10T11:50:25;5.97;;;3.95;;
12912;SDS011;6524;51.368;11.984;2022-10-10T12:00:51;3.95;;;3.55;;
12912;SDS011;6524;51.368;11.984;2022-10-10T12:06:01;4.53;;;3.50;;
12912;SDS011;6524;51.368;11.984;2022-10-10T12:11:30;4.78;;;4.20;;
12912;SDS011;6524;51.368;11.984;2022-10-10T12:16:38;5.43;;;3.85;;
12912;SDS011;6524;51.368;11.984;2022-10-10T12:21:58;5.03;;;3.83;;
12912;SDS011;6524;51.368;11.984;2022-10-10T12:37:29;6.60;;;3.90;;
12912;SDS011;6524;51.368;11.984;2022-10-10T12:42:32;5.10;;;3.95;;
12912;SDS011;6524;51.368;11.984;2022-10-10T12:53:01;6.03;;;3.45;;
12912;SDS011;6524;51.368;11.984;2022-10-10T12:58:06;4.35;;;3.50;;
12912;SDS011;6524;51.368;11.984;2022-10-10T13:03:11;4.80;;;4.30;;
12912;SDS011;6524;51.368;11.984;2022-10-10T13:08:23;6.97;;;4.10;;
12912;SDS011;6524;51.368;11.984;2022-10-10T13:13:26;6.10;;;3.60;;
12912;SDS011;6524;51.368;11.984;2022-10-10T13:19:13;4.75;;;3.67;;
12912;SDS011;6524;51.368;11.984;2022-10-10T13:23:53;3.58;;;3.20;;
12912;SDS011;6524;51.368;11.984;2022-10-10T13:28:58;4.40;;;3.47;;
12912;SDS011;6524;51.368;11.984;2022-10-10T13:34:04;6.28;;;3.22;;
12912;SDS011;6524;51.368;11.984;2022-10-10T13:39:09;4.43;;;3.10;;
12912;SDS011;6524;51.368;11.984;2022-10-10T13:44:15;4.35;;;3.58;;
12912;SDS011;6524;51.368;11.984;2022-10-10T13:49:51;4.63;;;3.60;;
12912;SDS011;6524;51.368;11.984;2022-10-10T13:55:12;8.13;;;3.35;;
12912;SDS011;6524;51.368;11.984;2022-10-10T14:00:15;5.65;;;4.43;;
12912;SDS011;6524;51.368;11.984;2022-10-10T14:05:35;5.18;;;4.05;;
12912;SDS011;6524;51.368;11.984;2022-10-10T14:10:36;5.13;;;3.63;;
12912;SDS011;6524;51.368;11.984;2022-10-10T14:20:40;4.65;;;3.70;;
12912;SDS011;6524;51.368;11.984;2022-10-10T14:25:41;5.50;;;3.63;;
12912;SDS011;6524;51.368;11.984;2022-10-10T14:30:43;7.68;;;3.67;;
12912;SDS011;6524;51.368;11.984;2022-10-10T14:35:44;5.43;;;3.67;;
12912;SDS011;6524;51.368;11.984;2022-10-10T14:40:46;5.75;;;3.50;;
12912;SDS011;6524;51.368;11.984;2022-10-10T14:45:49;5.10;;;3.50;;
12912;SDS011;6524;51.368;11.984;2022-10-10T14:50:52;4.75;;;3.70;;
12912;SDS011;6524;51.368;11.984;2022-10-10T14:55:52;5.05;;;3.80;;
12912;SDS011;6524;51.368;11.984;2022-10-10T15:00:52;7.53;;;4.00;;
12912;SDS011;6524;51.368;11.984;2022-10-10T15:05:53;4.28;;;3.88;;
12912;SDS011;6524;51.368;11.984;2022-10-10T15:10:53;5.22;;;4.10;;
12912;SDS011;6524;51.368;11.984;2022-10-10T15:15:55;5.82;;;4.00;;
12912;SDS011;6524;51.368;11.984;2022-10-10T15:20:56;5.78;;;3.85;;
12912;SDS011;6524;51.368;11.984;2022-10-10T15:25:57;5.97;;;3.80;;
12912;SDS011;6524;51.368;11.984;2022-10-10T15:30:59;5.00;;;3.95;;
12912;SDS011;6524;51.368;11.984;2022-10-10T15:36:03;4.43;;;4.00;;
12912;SDS011;6524;51.368;11.984;2022-10-10T15:41:06;4.97;;;4.28;;
12912;SDS011;6524;51.368;11.984;2022-10-10T15:46:08;5.22;;;3.80;;
12912;SDS011;6524;51.368;11.984;2022-10-10T15:51:09;4.45;;;4.00;;
12912;SDS011;6524;51.368;11.984;2022-10-10T15:56:10;6.13;;;4.25;;
12912;SDS011;6524;51.368;11.984;2022-10-10T16:01:14;4.93;;;4.10;;
12912;SDS011;6524;51.368;11.984;2022-10-10T16:06:17;5.45;;;4.30;;
12912;SDS011;6524;51.368;11.984;2022-10-10T16:11:20;5.28;;;4.07;;
12912;SDS011;6524;51.368;11.984;2022-10-10T16:16:22;4.40;;;3.97;;
12912;SDS011;6524;51.368;11.984;2022-10-10T16:21:23;6.60;;;4.43;;
12912;SDS011;6524;51.368;11.984;2022-10-10T16:26:25;5.32;;;4.28;;
12912;SDS011;6524;51.368;11.984;2022-10-10T16:31:28;7.20;;;4.80;;
12912;SDS011;6524;51.368;11.984;2022-10-10T16:36:30;7.03;;;4.88;;
12912;SDS011;6524;51.368;11.984;2022-10-10T16:41:32;6.88;;;5.05;;
12912;SDS011;6524;51.368;11.984;2022-10-10T16:46:33;6.20;;;5.55;;
12912;SDS011;6524;51.368;11.984;2022-10-10T16:51:33;6.32;;;5.18;;
12912;SDS011;6524;51.368;11.984;2022-10-10T16:56:34;8.02;;;5.22;;
12912;SDS011;6524;51.368;11.984;2022-10-10T17:01:34;6.50;;;4.97;;
12912;SDS011;6524;51.368;11.984;2022-10-10T17:06:34;14.05;;;8.35;;
12912;SDS011;6524;51.368;11.984;2022-10-10T17:11:38;7.65;;;4.60;;
12912;SDS011;6524;51.368;11.984;2022-10-10T17:16:38;9.65;;;5.18;;
12912;SDS011;6524;51.368;11.984;2022-10-10T17:21:39;11.07;;;6.32;;
12912;SDS011;6524;51.368;11.984;2022-10-10T17:26:39;9.50;;;7.32;;
12912;SDS011;6524;51.368;11.984;2022-10-10T17:31:39;11.10;;;5.30;;
12912;SDS011;6524;51.368;11.984;2022-10-10T17:36:40;8.57;;;5.20;;
12912;SDS011;6524;51.368;11.984;2022-10-10T17:41:40;7.22;;;4.57;;
12912;SDS011;6524;51.368;11.984;2022-10-10T17:46:40;7.82;;;4.63;;
12912;SDS011;6524;51.368;11.984;2022-10-10T17:51:43;9.32;;;4.90;;
12912;SDS011;6524;51.368;11.984;2022-10-10T17:56:43;6.93;;;4.50;;
12912;SDS011;6524;51.368;11.984;2022-10-10T18:01:43;6.35;;;4.50;;
12912;SDS011;6524;51.368;11.984;2022-10-10T18:06:44;7.43;;;4.90;;
12912;SDS011;6524;51.368;11.984;2022-10-10T18:11:45;10.25;;;5.10;;
12912;SDS011;6524;51.368;11.984;2022-10-10T18:16:45;8.80;;;5.05;;
12912;SDS011;6524;51.368;11.984;2022-10-10T18:21:47;8.32;;;5.18;;
12912;SDS011;6524;51.368;11.984;2022-10-10T18:26:48;7.10;;;5.28;;
12912;SDS011;6524;51.368;11.984;2022-10-10T18:31:48;9.93;;;4.90;;
12912;SDS011;6524;51.368;11.984;2022-10-10T18:36:48;11.50;;;5.30;;
12912;SDS011;6524;51.368;11.984;2022-10-10T18:41:49;7.45;;;5.00;;
12912;SDS011;6524;51.368;11.984;2022-10-10T18:46:49;8.13;;;4.97;;
12912;SDS011;6524;51.368;11.984;2022-10-10T18:51:50;8.27;;;5.43;;
12912;SDS011;6524;51.368;11.984;2022-10-10T18:56:50;10.25;;;4.70;;
12912;SDS011;6524;51.368;11.984;2022-10-10T19:01:51;9.68;;;4.93;;
12912;SDS011;6524;51.368;11.984;2022-10-10T19:06:51;8.25;;;4.70;;
12912;SDS011;6524;51.368;11.984;2022-10-10T19:11:52;9.20;;;6.05;;
12912;SDS011;6524;51.368;11.984;2022-10-10T19:16:52;13.43;;;8.02;;
12912;SDS011;6524;51.368;11.984;2022-10-10T19:21:52;7.22;;;4.93;;
12912;SDS011;6524;51.368;11.984;2022-10-10T19:26:54;9.82;;;5.00;;
12912;SDS011;6524;51.368;11.984;2022-10-10T19:31:55;8.38;;;4.72;;
12912;SDS011;6524;51.368;11.984;2022-10-10T19:36:56;8.93;;;5.15;;
12912;SDS011;6524;51.368;11.984;2022-10-10T19:41:57;5.63;;;4.18;;
12912;SDS011;6524;51.368;11.984;2022-10-10T19:46:58;9.38;;;4.88;;
12912;SDS011;6524;51.368;11.984;2022-10-10T19:51:59;6.68;;;4.22;;
12912;SDS011;6524;51.368;11.984;2022-10-10T19:56:59;7.65;;;4.38;;
12912;SDS011;6524;51.368;11.984;2022-10-10T20:02:00;8.02;;;4.38;;
12912;SDS011;6524;51.368;11.984;2022-10-10T20:07:00;11.07;;;4.53;;
12912;SDS011;6524;51.368;11.984;2022-10-10T20:12:01;8.27;;;4.93;;
12912;SDS011;6524;51.368;11.984;2022-10-10T20:17:01;7.57;;;4.40;;
12912;SDS011;6524;51.368;11.984;2022-10-10T20:22:02;7.55;;;6.28;;
12912;SDS011;6524;51.368;11.984;2022-10-10T20:27:02;7.15;;;4.65;;
12912;SDS011;6524;51.368;11.984;2022-10-10T20:32:03;8.00;;;4.72;;
12912;SDS011;6524;51.368;11.984;2022-10-10T20:37:03;6.18;;;4.43;;
12912;SDS011;6524;51.368;11.984;2022-10-10T20:42:04;8.35;;;4.80;;
12912;SDS011;6524;51.368;11.984;2022-10-10T20:47:04;7.55;;;4.60;;
12912;SDS011;6524;51.368;11.984;2022-10-10T20:52:05;7.55;;;4.55;;
12912;SDS011;6524;51.368;11.984;2022-10-10T20:57:06;8.27;;;4.45;;
12912;SDS011;6524;51.368;11.984;2022-10-10T21:02:07;8.13;;;4.65;;
12912;SDS011;6524;51.368;11.984;2022-10-10T21:07:09;6.13;;;4.70;;
12912;SDS011;6524;51.368;11.984;2022-10-10T21:12:11;8.30;;;4.55;;
12912;SDS011;6524;51.368;11.984;2022-10-10T21:17:12;7.90;;;4.70;;
12912;SDS011;6524;51.368;11.984;2022-10-10T21:22:12;6.50;;;4.22;;
12912;SDS011;6524;51.368;11.984;2022-10-10T21:27:12;6.72;;;4.43;;
12912;SDS011;6524;51.368;11.984;2022-10-10T21:32:12;6.97;;;4.53;;
12912;SDS011;6524;51.368;11.984;2022-10-10T21:37:13;8.77;;;4.50;;
12912;SDS011;6524;51.368;11.984;2022-10-10T21:42:13;7.45;;;4.03;;
12912;SDS011;6524;51.368;11.984;2022-10-10T21:47:13;7.45;;;4.50;;
12912;SDS011;6524;51.368;11.984;2022-10-10T21:52:14;8.57;;;4.30;;
12912;SDS011;6524;51.368;11.984;2022-10-10T21:57:14;6.68;;;4.25;;
12912;SDS011;6524;51.368;11.984;2022-10-10T22:02:15;6.32;;;4.50;;
12912;SDS011;6524;51.368;11.984;2022-10-10T22:07:15;5.45;;;4.05;;
12912;SDS011;6524;51.368;11.984;2022-10-10T22:12:16;10.75;;;4.60;;
12912;SDS011;6524;51.368;11.984;2022-10-10T22:17:16;6.22;;;4.25;;
